• Join FlightAware (Why Join?)
  • Login
  • US Flag 
04:37AM EDT


 

Airport Tracker/Info


-or-


 

Live Flight TrackerFlight Track Log ✈ EJM685 ✈ 01-Jan-2014 ✈ TIST / STT - KTEB

Flight Track Log - Related Links

Times and Time Zones

All times are in EST time to prevent confusion due to time zone crossing. See the EJM685 flight status page for this flight to view local times or setup timezone preferences in your user account.

Time Position Orientation Groundspeed Altitude Reporting Facility
EST Latitude Longitude Course Direction KTS MPH feet Rate Location/Type
12:25PM 18.3333 -64.9333 198° South 160 184 1,500  Level San Juan Center
12:26PM 18.2833 -64.9500 198° South 220 253 3,100 2,580 Climbing San Juan Center
12:27PM 18.2500 -65.0333 247° West 290 334 6,700 3,300 Climbing San Juan Center
12:28PM 18.2500 -65.1000 270° West 300 345 9,800 1,620 Climbing San Juan Center
12:29PM 18.2833 -65.2000 289° West 360 414 10,000 1,200 Climbing San Juan Center
12:30PM 18.3667 -65.2667 323° Northwest 360 414 12,300 2,400 Climbing San Juan Center
12:31PM 18.4667 -65.3000 342° North 370 426 14,800 2,580 Climbing San Juan Center
12:32PM 18.5667 -65.3500 335° Northwest 390 449 17,600 2,400 Climbing San Juan Center
12:33PM 18.6667 -65.4000 335° Northwest 400 460 19,700 1,200 Climbing San Juan Center
12:34PM 18.7667 -65.4500 335° Northwest 390 449 20,000 720 Climbing San Juan Center
12:35PM 18.8667 -65.5000 335° Northwest 400 460 21,200 1,560 Climbing San Juan Center
12:36PM 18.9667 -65.5500 335° Northwest 410 472 23,200 1,920 Climbing San Juan Center
12:37PM 19.0833 -65.6167 332° Northwest 430 495 25,100 1,800 Climbing San Juan Center
12:38PM 19.1833 -65.6667 335° Northwest 430 495 26,900 1,980 Climbing San Juan Center
12:39PM 19.2833 -65.7167 335° Northwest 440 506 29,100 1,920 Climbing San Juan Center
12:40PM 19.4000 -65.7667 338° Northwest 460 529 30,800 1,620 Climbing San Juan Center
12:41PM 19.5167 -65.8333 332° Northwest 480 552 32,400 1,980 Climbing San Juan Center
12:42PM 19.6333 -65.9000 332° Northwest 480 552 34,900 2,280 Climbing San Juan Center
12:43PM 19.7500 -65.9667 332° Northwest 460 529 37,000 2,220 Climbing San Juan Center
12:44PM 19.8667 -66.0167 338° Northwest 450 518 39,400 2,340 Climbing San Juan Center
12:45PM 19.9833 -66.0667 338° Northwest 440 506 41,700 1,800 Climbing San Juan Center
12:46PM 20.0833 -66.1333 328° Northwest 410 472 43,000 600 Climbing San Juan Center
12:47PM 20.1833 -66.1833 335° Northwest 420 483 43,000  Level San Juan Center
12:48PM 20.3000 -66.2333 338° Northwest 430 495 43,000  Level San Juan Center
12:49PM 20.4000 -66.3000 328° Northwest 430 495 43,000  Level San Juan Center
12:50PM 20.5167 -66.3500 338° Northwest 430 495 43,000  Level San Juan Center
12:51PM 20.6167 -66.4167 328° Northwest 440 506 43,000  Level San Juan Center
12:52PM 20.7333 -66.4667 338° Northwest 430 495 43,000  Level San Juan Center
12:53PM 20.8333 -66.5167 335° Northwest 430 495 43,000  Level San Juan Center
12:54PM 20.9500 -66.5833 332° Northwest 440 506 43,000  Level San Juan Center
12:55PM 21.0500 -66.6333 335° Northwest 440 506 43,000  Level San Juan Center
12:56PM 21.1667 -66.7000 332° Northwest 440 506 43,000  Level San Juan Center
12:57PM 21.2833 -66.7500 338° Northwest 440 506 43,000  Level San Juan Center
12:58PM 21.3833 -66.8167 328° Northwest 440 506 43,000  Level San Juan Center
12:59PM 21.5000 -66.8667 338° Northwest 440 506 43,000  Level San Juan Center
01:00PM 21.6000 -66.9333 328° Northwest 430 495 43,000  Level San Juan Center
01:01PM 21.7167 -66.9833 338° Northwest 430 495 43,000  Level San Juan Center
01:02PM 21.7667 -67.0167 329° Northwest 386 444 43,000  Level New York Oceanic (ODAPS)
01:08PM 22.2333 -67.3167 349° North 423 487 43,000  Level New York Oceanic (ODAPS)
01:35PM 25.4667 -68.0000 349° North 429 494 43,000  Level New York Oceanic (ODAPS)
02:03PM 27.9333 -68.5333 349° North 416 479 43,000  Level New York Oceanic (ODAPS)
02:21PM 30.9000 -69.2333 349° North 419 482 43,000  Level New York Oceanic (ODAPS)
03:16PM 37.2389 -70.8503 326° Northwest 461 531 43,000  Level New York Center
03:17PM 37.4860 -70.9190 348° North 419 482 43,000  Level FlightAware Transoceanic
03:17PM 37.3517 -70.8817 348° North 426 490 43,000  Level New York Center
03:18PM 37.6013 -70.9511 348° North 419 482 43,000  Level FlightAware Transoceanic
03:18PM 37.4622 -70.9186 345° North 414 476 43,000  Level New York Center
03:19PM 37.7167 -70.9833 326° Northwest 419 482 43,000  Level FlightAware Transoceanic
03:19PM 37.5683 -70.9503 347° North 407 468 43,000  Level New York Center
03:20PM 37.6811 -70.9769 349° North 407 468 43,000  Level New York Center
03:21PM 37.7789 -71.0272 338° Northwest 396 456 43,000  Level New York Center
03:22PM 37.8664 -71.1011 326° Northwest 380 437 43,000  Level New York Center
03:23PM 37.9578 -71.1675 330° Northwest 375 432 43,000  Level New York Center
03:24PM 38.0369 -71.2497 321° Northwest 375 432 43,000  Level New York Center
03:25PM 38.0989 -71.3425 310° West 360 414 43,000  Level New York Center
03:26PM 38.1653 -71.4328 313° West 360 414 43,000  Level New York Center
03:27PM 38.2314 -71.5261 312° West 349 402 43,000  Level New York Center
03:28PM 38.2953 -71.6142 313° West 349 402 43,000 -780 Level New York Center
03:29PM 38.3572 -71.7103 309° West 349 402 41,500 -1,620 Descending New York Center
03:30PM 38.4189 -71.8011 311° West 349 402 39,900 -1,620 Descending New York Center
03:31PM 38.4806 -71.8869 313° West 338 389 38,300 -1,620 Descending New York Center
03:32PM 38.5422 -71.9861 309° West 343 395 36,700 -1,680 Descending New York Center
03:33PM 38.6100 -72.0697 316° Northwest 348 400 35,000 -13,380 Descending New York Center
03:34PM 38.6758 -72.1667 311° West 348 400 10,000 -1,800 Descending New York Center
03:35PM 38.7433 -72.2692 310° West 360 414 31,500 9,840 Climbing New York Center
03:36PM 38.8128 -72.3744 310° West 370 426 29,700 -1,860 Descending New York Center
03:37PM 38.8861 -72.4828 311° West 390 449 27,800 -1,920 Descending New York Center
03:38PM 38.9575 -72.5889 311° West 395 455 25,900 -1,800 Descending New York Center
03:39PM 39.0228 -72.6842 311° West 379 436 24,200 -1,800 Descending New York Center
03:40PM 39.0878 -72.7847 310° West 367 422 22,400 -1,800 Descending New York Center
03:41PM 39.1508 -72.8775 311° West 356 410 20,700 -1,680 Descending New York Center
03:42PM 39.2136 -72.9706 311° West 350 403 19,100 -1,440 Descending New York Center
03:43PM 39.2725 -73.0608 310° West 350 403 17,900 -1,560 Descending New York Center
03:44PM 39.3311 -73.1514 310° West 337 388 16,000 -1,740 Descending New York Center
03:45PM 39.3897 -73.2367 312° West 325 374 14,500 -1,500 Descending New York Center
03:46PM 39.4442 -73.3272 308° West 325 374 13,000 -1,500 Descending New York Center
03:47PM 39.4986 -73.4047 312° West 314 361 11,500 -1,320 Descending New York Center
03:48PM 39.5508 -73.4875 309° West 309 356 10,500 -840 Descending New York Center
03:49PM 39.6033 -73.5675 310° West 299 344 9,900 -720 Descending New York Center
03:50PM 39.6617 -73.6561 311° West 299 344 9,100 -720 Descending New York Center
03:51PM 39.7117 -73.7339 310° West 293 337 8,500 -600 Descending New York Center
03:52PM 39.7619 -73.8061 312° West 283 326 7,900 -600 Descending New York Center
03:53PM 39.8039 -73.8728 309° West 253 291 7,400 -600 Descending New York Center
03:54PM 39.8439 -73.9369 309° West 240 276 6,700 -900 Descending New York Center
03:55PM 39.8819 -73.9928 312° West 234 269 5,700 -1,020 Descending New York Center
03:56PM 39.9239 -74.0594 309° West 234 269 4,700 -840 Descending New York Center
03:57PM 39.9697 -74.1322 309° West 239 275 4,100 -300 Descending New York Center
03:58PM 40.0136 -74.2019 309° West 239 275 4,100  Level New York Center
03:59PM 40.0575 -74.2692 310° West 239 275 4,100  Level New York Center
04:00PM 40.0975 -74.3311 310° West 239 275 4,100 -60 Level New York Center
04:01PM 40.1450 -74.4094 308° West 239 275 4,000 -60 Descending New York Center
04:02PM 40.1908 -74.4772 312° West 239 275 4,000  Level New York Center
04:03PM 40.2500 -74.5333 324° Northwest 262 302 4,000  Level New York TRACON
04:04PM 40.3333 -74.5500 351° North 270 311 4,000  Level New York TRACON
04:05PM 40.4000 -74.5667 349° North 272 313 4,000  Level New York TRACON
04:06PM 40.4833 -74.5833 351° North 272 313 4,000  Level New York TRACON
04:07PM 40.5500 -74.6000 349° North 268 308 4,000  Level New York TRACON
04:09PM 40.6333 -74.6000 360° North 269 310 4,000  Level New York TRACON
04:09PM 40.7000 -74.5833 11° North 266 306 4,000  Level New York TRACON
04:10PM 40.7667 -74.5500 21° North 271 312 4,000 -360 Level New York TRACON
04:11PM 40.8333 -74.5167 21° North 268 308 3,300 -540 Descending New York TRACON
04:12PM 40.8833 -74.4667 37° Northeast 244 281 3,000 -180 Descending New York TRACON
04:13PM 40.9333 -74.4167 37° Northeast 219 252 3,000  Level New York TRACON
04:14PM 40.9667 -74.3500 56° Northeast 221 254 3,000  Level New York TRACON
04:15PM 41.0000 -74.2833 56° Northeast 218 251 3,000 -240 Level New York TRACON
04:16PM 41.0167 -74.2167 72° East 172 198 2,600 -540 Descending New York TRACON
04:17PM 41.0167 -74.1500 90° East 174 200 2,000 -300 Descending New York TRACON
04:18PM 41.0167 -74.1000 90° East 169 194 2,000  Level New York TRACON
04:19PM 40.9833 -74.0500 131° Southeast 172 198 2,000 -120 Level New York TRACON
04:20PM 40.9333 -74.0500 180° South 162 186 1,800 -540 Descending New York TRACON
04:21PM 40.9000 -74.0500 180° South 131 151 1,000 -900 Descending New York TRACON